createdAt,value
2022-09-07T00:10:22.361Z,11.73
2022-09-07T00:40:25.492Z,11.37
2022-09-07T01:10:29.482Z,10.98
2022-09-07T01:40:32.900Z,10.69
2022-09-07T02:10:36.057Z,10.41
2022-09-07T02:40:39.202Z,10.01
2022-09-07T03:10:42.680Z,9.65
2022-09-07T03:40:45.429Z,9.41
2022-09-07T04:10:49.139Z,9.16
2022-09-07T04:40:51.846Z,9.19
2022-09-07T05:10:55.862Z,9.47
2022-09-07T05:40:58.812Z,10.00
2022-09-07T06:11:02.121Z,10.69
2022-09-07T07:11:28.246Z,13.08
2022-09-07T08:11:54.476Z,15.79
2022-09-07T08:41:57.189Z,17.53
2022-09-07T09:12:00.725Z,19.27
2022-09-07T09:42:03.839Z,20.04
2022-09-07T10:12:08.414Z,21.13
2022-09-07T10:42:11.590Z,21.46
2022-09-07T11:12:15.361Z,22.70
2022-09-07T12:12:41.848Z,23.96
2022-09-07T12:42:44.692Z,24.07
2022-09-07T13:43:31.011Z,23.32
2022-09-07T14:13:34.525Z,23.09
2022-09-07T14:43:37.202Z,22.88
2022-09-07T15:13:41.034Z,22.75
2022-09-07T15:43:43.754Z,23.45
2022-09-07T16:13:48.142Z,21.64
2022-09-07T16:43:50.999Z,20.83
2022-09-07T17:13:54.897Z,20.09
2022-09-07T17:43:57.747Z,19.37
2022-09-07T18:14:01.873Z,18.49
2022-09-07T18:44:04.667Z,18.02
2022-09-07T19:14:08.183Z,17.73
2022-09-07T19:44:10.892Z,17.32
2022-09-07T20:14:14.744Z,16.84
2022-09-07T20:44:17.474Z,16.45
2022-09-07T21:14:20.760Z,16.08
2022-09-07T21:44:23.788Z,15.78
2022-09-07T22:14:26.847Z,15.49
2022-09-07T22:44:29.562Z,15.23
2022-09-07T23:14:33.538Z,15.17
2022-09-07T23:44:36.310Z,14.93
